Time;durP1;ratioP1;P1;durP2;ratioP2;P2;SDS_P1;SDS_P2;PMS_P1;PMS_P2;Temp;Humidity;BMP_temperature;BMP_pressure;BME280_temperature;BME280_humidity;BME280_pressure;Samples;Min_cycle;Max_cycle;Signal;HPM_P1;HPM_P2
2023/08/02 00:00:23;;;;;;;16.95;5.45;;;;;;;;;;6215188;28;20058;-75
2023/08/02 00:03:24;;;;;;;14.20;5.70;;;;;;;;;;6215632;28;20069;-73
2023/08/02 00:06:28;;;;;;;14.55;5.50;;;;;;;;;;6218004;28;20242;-72
2023/08/02 00:09:30;;;;;;;11.40;5.50;;;;;;;;;;6215747;28;20096;-74
2023/08/02 00:12:31;;;;;;;14.85;5.03;;;;;;;;;;6221983;28;20058;-74
2023/08/02 00:15:33;;;;;;;15.70;5.63;;;;;;;;;;6219775;28;20061;-74
2023/08/02 00:18:34;;;;;;;13.38;5.00;;;;;;;;;;6218264;28;20068;-75
2023/08/02 00:21:37;;;;;;;12.20;5.20;;;;;;;;;;6220921;28;20061;-75
2023/08/02 00:24:39;;;;;;;12.73;5.70;;;;;;;;;;6220109;28;20058;-75
2023/08/02 00:27:40;;;;;;;10.43;5.28;;;;;;;;;;6217784;28;20058;-75
2023/08/02 00:30:45;;;;;;;13.27;5.15;;;;;;;;;;6219944;28;20104;-73
2023/08/02 00:33:46;;;;;;;15.55;5.68;;;;;;;;;;6216955;28;20053;-72
2023/08/02 00:36:49;;;;;;;14.20;5.50;;;;;;;;;;6216056;28;20109;-73
2023/08/02 00:39:52;;;;;;;10.95;5.35;;;;;;;;;;6219394;28;20045;-72
2023/08/02 00:42:53;;;;;;;16.20;5.70;;;;;;;;;;6215023;28;20049;-74
2023/08/02 00:45:54;;;;;;;13.05;5.15;;;;;;;;;;6217094;28;20042;-72
2023/08/02 00:48:56;;;;;;;13.13;5.93;;;;;;;;;;6216851;28;20222;-73
2023/08/02 00:51:59;;;;;;;11.95;6.03;;;;;;;;;;6217444;28;20056;-74
2023/08/02 00:55:00;;;;;;;10.52;5.03;;;;;;;;;;6216145;28;20054;-72
2023/08/02 00:58:02;;;;;;;11.18;4.95;;;;;;;;;;6216504;28;20039;-71
2023/08/02 01:01:07;;;;;;;13.73;5.20;;;;;;;;;;6218452;28;20353;-73
2023/08/02 01:04:08;;;;;;;12.20;4.85;;;;;;;;;;6218862;28;20099;-75
2023/08/02 01:07:12;;;;;;;8.90;4.68;;;;;;;;;;6217959;28;20104;-75
2023/08/02 01:10:16;;;;;;;9.60;5.13;;;;;;;;;;6218318;28;20096;-74
2023/08/02 01:13:19;;;;;;;11.57;4.65;;;;;;;;;;6210563;28;20113;-72
2023/08/02 01:16:23;;;;;;;12.37;4.83;;;;;;;;;;6217063;28;20111;-72
2023/08/02 01:19:25;;;;;;;10.55;4.85;;;;;;;;;;6220154;28;20049;-73
2023/08/02 01:22:28;;;;;;;11.17;5.03;;;;;;;;;;6222166;28;20054;-73
2023/08/02 01:25:32;;;;;;;13.63;5.95;;;;;;;;;;6214998;28;20297;-72
2023/08/02 01:28:34;;;;;;;10.88;5.28;;;;;;;;;;6217614;28;20080;-73
2023/08/02 01:31:37;;;;;;;12.63;5.47;;;;;;;;;;6221201;28;20084;-73
2023/08/02 01:34:39;;;;;;;13.25;5.43;;;;;;;;;;6214974;28;20060;-74
2023/08/02 01:37:42;;;;;;;9.80;4.88;;;;;;;;;;6217596;28;20890;-73
2023/08/02 01:40:44;;;;;;;20.27;5.57;;;;;;;;;;6215132;28;20337;-73
2023/08/02 01:43:45;;;;;;;10.35;5.03;;;;;;;;;;6216071;28;20056;-73
2023/08/02 01:46:46;;;;;;;12.68;5.00;;;;;;;;;;6212550;28;20089;-73
2023/08/02 01:49:48;;;;;;;10.02;4.63;;;;;;;;;;6216861;28;20066;-73
2023/08/02 01:52:51;;;;;;;14.40;5.60;;;;;;;;;;6217141;28;20064;-73
2023/08/02 01:55:52;;;;;;;10.68;4.72;;;;;;;;;;6215741;28;20050;-73
2023/08/02 01:58:53;;;;;;;12.13;4.60;;;;;;;;;;6216488;28;20054;-73
2023/08/02 02:01:55;;;;;;;11.77;4.82;;;;;;;;;;6216772;28;20057;-72
2023/08/02 02:04:56;;;;;;;9.05;5.03;;;;;;;;;;6218691;28;20332;-73
2023/08/02 02:07:59;;;;;;;14.98;5.45;;;;;;;;;;6217300;28;20058;-73
2023/08/02 02:11:01;;;;;;;11.32;4.85;;;;;;;;;;6217164;28;20277;-73
2023/08/02 02:14:02;;;;;;;12.43;5.25;;;;;;;;;;6214903;28;20049;-73
2023/08/02 02:17:04;;;;;;;13.27;5.38;;;;;;;;;;6217208;28;20081;-73
2023/08/02 02:20:06;;;;;;;10.77;5.35;;;;;;;;;;6217969;28;20317;-73
2023/08/02 02:23:09;;;;;;;12.93;5.03;;;;;;;;;;6218695;28;20053;-73
2023/08/02 02:26:11;;;;;;;8.52;4.78;;;;;;;;;;6213312;28;20084;-73
2023/08/02 02:29:12;;;;;;;12.45;5.18;;;;;;;;;;6216792;28;20041;-72
2023/08/02 02:32:13;;;;;;;10.52;5.53;;;;;;;;;;6213062;28;20050;-73
2023/08/02 02:35:15;;;;;;;16.98;5.97;;;;;;;;;;6215874;28;20101;-73
2023/08/02 02:38:18;;;;;;;7.55;4.80;;;;;;;;;;6214496;28;20334;-73
2023/08/02 02:41:19;;;;;;;18.42;5.68;;;;;;;;;;6214571;28;20342;-73
2023/08/02 02:44:21;;;;;;;13.38;5.47;;;;;;;;;;6215394;28;20062;-73
2023/08/02 02:47:22;;;;;;;11.50;5.20;;;;;;;;;;6215195;28;20060;-74
2023/08/02 02:50:24;;;;;;;10.13;4.97;;;;;;;;;;6218095;28;20238;-72
2023/08/02 02:53:26;;;;;;;13.23;6.65;;;;;;;;;;6215001;28;20058;-75
2023/08/02 02:56:28;;;;;;;11.98;5.68;;;;;;;;;;6213591;28;20068;-72
2023/08/02 02:59:29;;;;;;;14.35;5.38;;;;;;;;;;6215091;28;20046;-74
2023/08/02 03:02:31;;;;;;;15.20;6.03;;;;;;;;;;6216152;28;20058;-73
2023/08/02 03:05:32;;;;;;;14.13;5.70;;;;;;;;;;6219020;28;20357;-73
2023/08/02 03:08:35;;;;;;;11.75;5.57;;;;;;;;;;6223501;28;20284;-73
2023/08/02 03:11:36;;;;;;;15.73;4.97;;;;;;;;;;6219964;28;20359;-73
2023/08/02 03:14:38;;;;;;;13.82;5.88;;;;;;;;;;6220881;28;20054;-73
2023/08/02 03:17:39;;;;;;;12.95;5.18;;;;;;;;;;6216956;28;20069;-73
2023/08/02 03:20:40;;;;;;;11.40;5.18;;;;;;;;;;6220068;28;20057;-73
2023/08/02 03:23:43;;;;;;;13.00;5.97;;;;;;;;;;6222082;28;20092;-73
2023/08/02 03:26:45;;;;;;;14.07;6.70;;;;;;;;;;6220622;28;20058;-72
2023/08/02 03:29:46;;;;;;;12.30;6.35;;;;;;;;;;6222973;28;20099;-73
2023/08/02 03:32:48;;;;;;;17.15;6.68;;;;;;;;;;6222109;28;20057;-74
2023/08/02 03:35:49;;;;;;;18.15;7.13;;;;;;;;;;6221403;28;20064;-73
2023/08/02 03:38:52;;;;;;;15.65;6.00;;;;;;;;;;6219920;28;20095;-73
2023/08/02 03:41:53;;;;;;;13.23;5.93;;;;;;;;;;6218233;28;20049;-73
2023/08/02 03:44:55;;;;;;;11.57;5.57;;;;;;;;;;6218358;28;20053;-73
2023/08/02 03:47:56;;;;;;;13.20;5.82;;;;;;;;;;6217830;28;20104;-72
2023/08/02 03:50:58;;;;;;;13.00;5.68;;;;;;;;;;6221916;28;20062;-73
2023/08/02 03:54:01;;;;;;;12.82;6.18;;;;;;;;;;6219091;28;20061;-74
2023/08/02 03:57:02;;;;;;;15.57;6.97;;;;;;;;;;6217203;28;20093;-72
2023/08/02 04:00:04;;;;;;;13.80;6.55;;;;;;;;;;6218407;28;20325;-72
2023/08/02 04:03:06;;;;;;;15.70;7.43;;;;;;;;;;6218186;28;20085;-73
2023/08/02 04:06:07;;;;;;;16.85;7.72;;;;;;;;;;6217258;28;20226;-73
2023/08/02 04:09:10;;;;;;;14.60;7.88;;;;;;;;;;6218818;28;20147;-73
2023/08/02 04:12:11;;;;;;;18.75;9.43;;;;;;;;;;6220247;28;20053;-73
2023/08/02 04:15:13;;;;;;;21.83;10.32;;;;;;;;;;6218111;28;20046;-75
2023/08/02 04:18:14;;;;;;;19.10;11.95;;;;;;;;;;6218806;28;20054;-74
2023/08/02 04:21:19;;;;;;;14.73;10.20;;;;;;;;;;6219979;28;20334;-74
2023/08/02 04:24:22;;;;;;;18.10;11.45;;;;;;;;;;6218079;28;20081;-72
2023/08/02 04:27:23;;;;;;;20.27;10.98;;;;;;;;;;6206669;28;20128;-73
2023/08/02 04:30:25;;;;;;;13.50;10.45;;;;;;;;;;6218270;28;20057;-72
2023/08/02 04:33:26;;;;;;;15.98;9.88;;;;;;;;;;6219747;28;20104;-72
2023/08/02 04:36:27;;;;;;;13.68;8.73;;;;;;;;;;6220551;28;20083;-72
2023/08/02 04:39:30;;;;;;;9.40;6.95;;;;;;;;;;6217695;28;20355;-72
2023/08/02 04:42:32;;;;;;;8.50;6.00;;;;;;;;;;6217735;28;20360;-71
2023/08/02 04:45:33;;;;;;;10.57;6.15;;;;;;;;;;6220081;28;20061;-71
2023/08/02 04:48:34;;;;;;;7.20;5.60;;;;;;;;;;6219196;28;20046;-71
2023/08/02 04:51:37;;;;;;;7.45;4.80;;;;;;;;;;6216036;28;20054;-71
2023/08/02 04:54:40;;;;;;;9.70;4.28;;;;;;;;;;6213868;28;20104;-71
2023/08/02 04:57:42;;;;;;;7.57;4.13;;;;;;;;;;6218988;28;20058;-73
2023/08/02 05:00:44;;;;;;;7.03;4.30;;;;;;;;;;6217674;28;20050;-73
2023/08/02 05:03:45;;;;;;;8.30;3.70;;;;;;;;;;6218877;28;20373;-73
2023/08/02 05:06:46;;;;;;;4.65;3.58;;;;;;;;;;6214779;28;20058;-71
2023/08/02 05:09:49;;;;;;;4.80;2.88;;;;;;;;;;6222286;28;20108;-74
2023/08/02 05:12:51;;;;;;;5.20;3.70;;;;;;;;;;6216614;28;20054;-73
2023/08/02 05:15:52;;;;;;;9.35;3.60;;;;;;;;;;6215919;28;20307;-73
2023/08/02 05:18:54;;;;;;;5.15;3.53;;;;;;;;;;6215073;28;20046;-73
2023/08/02 05:21:55;;;;;;;8.18;3.15;;;;;;;;;;6218630;28;20334;-74
2023/08/02 05:24:58;;;;;;;4.30;3.15;;;;;;;;;;6215736;28;20101;-73
2023/08/02 05:28:00;;;;;;;3.75;2.95;;;;;;;;;;6216484;28;20077;-73
2023/08/02 05:31:01;;;;;;;4.97;3.17;;;;;;;;;;6217377;28;20061;-73
2023/08/02 05:34:03;;;;;;;4.95;3.13;;;;;;;;;;6215947;28;20169;-73
2023/08/02 05:37:05;;;;;;;7.93;3.22;;;;;;;;;;6215786;28;20316;-73
2023/08/02 05:40:08;;;;;;;4.63;3.40;;;;;;;;;;6217321;28;20046;-73
2023/08/02 05:43:10;;;;;;;4.32;2.97;;;;;;;;;;6213476;28;20053;-73
2023/08/02 05:46:11;;;;;;;5.40;3.13;;;;;;;;;;6216284;28;20269;-72
2023/08/02 05:49:13;;;;;;;4.95;3.03;;;;;;;;;;6216744;28;20113;-72
2023/08/02 05:52:14;;;;;;;7.95;3.60;;;;;;;;;;6217689;28;20061;-72
2023/08/02 05:55:17;;;;;;;5.72;3.17;;;;;;;;;;6214794;28;20270;-72
2023/08/02 05:58:19;;;;;;;3.92;3.10;;;;;;;;;;6214552;28;20116;-72
2023/08/02 06:01:20;;;;;;;3.30;2.85;;;;;;;;;;6215723;28;20715;-72
2023/08/02 06:04:22;;;;;;;6.25;2.78;;;;;;;;;;6214545;28;20219;-72
2023/08/02 06:07:23;;;;;;;3.60;2.60;;;;;;;;;;6213889;28;20049;-72
2023/08/02 06:10:26;;;;;;;3.70;2.65;;;;;;;;;;6215815;28;20053;-72
2023/08/02 06:13:27;;;;;;;3.67;2.95;;;;;;;;;;6218131;28;20065;-73
2023/08/02 06:16:29;;;;;;;4.47;2.75;;;;;;;;;;6217019;28;20065;-74
2023/08/02 06:19:30;;;;;;;4.90;2.80;;;;;;;;;;6221881;28;20057;-75
2023/08/02 06:22:32;;;;;;;3.53;2.60;;;;;;;;;;6217041;28;20283;-75
2023/08/02 06:25:35;;;;;;;9.10;2.70;;;;;;;;;;6214665;28;20063;-75
2023/08/02 06:28:36;;;;;;;5.18;2.33;;;;;;;;;;6213266;28;20050;-75
2023/08/02 06:31:37;;;;;;;5.00;2.63;;;;;;;;;;6217536;28;20362;-75
2023/08/02 06:34:39;;;;;;;4.78;2.40;;;;;;;;;;6213432;28;20054;-74
2023/08/02 06:37:40;;;;;;;5.78;2.72;;;;;;;;;;6219864;28;20069;-75
2023/08/02 06:40:43;;;;;;;5.65;2.40;;;;;;;;;;6224786;28;20104;-76
2023/08/02 06:43:44;;;;;;;2.97;2.30;;;;;;;;;;6219442;28;20080;-76
2023/08/02 06:46:46;;;;;;;3.47;2.13;;;;;;;;;;6220837;28;20049;-76
2023/08/02 06:49:47;;;;;;;3.03;2.00;;;;;;;;;;6222031;28;20368;-77
2023/08/02 06:52:49;;;;;;;3.58;2.30;;;;;;;;;;6225425;28;20050;-77
2023/08/02 06:55:52;;;;;;;3.40;2.13;;;;;;;;;;6222509;28;20058;-75
2023/08/02 06:58:53;;;;;;;5.72;1.80;;;;;;;;;;6223206;28;20053;-77
2023/08/02 07:01:56;;;;;;;3.35;2.00;;;;;;;;;;6221126;28;20049;-77
2023/08/02 07:04:57;;;;;;;4.05;2.28;;;;;;;;;;6223588;28;20330;-75
2023/08/02 07:07:59;;;;;;;1.95;1.75;;;;;;;;;;6222056;28;20050;-75
2023/08/02 07:11:02;;;;;;;4.13;1.48;;;;;;;;;;6222684;28;20211;-77
2023/08/02 07:14:03;;;;;;;2.38;1.80;;;;;;;;;;6222535;28;20050;-77
2023/08/02 07:17:05;;;;;;;5.53;2.08;;;;;;;;;;6221674;28;20058;-77
2023/08/02 07:20:08;;;;;;;4.03;1.73;;;;;;;;;;6223918;28;20046;-76
2023/08/02 07:23:09;;;;;;;4.20;2.23;;;;;;;;;;6221709;28;20056;-75
2023/08/02 07:26:12;;;;;;;3.88;2.08;;;;;;;;;;6222986;28;20214;-76
2023/08/02 07:29:13;;;;;;;5.65;1.80;;;;;;;;;;6223053;28;20053;-75
2023/08/02 07:32:15;;;;;;;4.20;1.70;;;;;;;;;;6222140;28;20154;-75
2023/08/02 07:35:16;;;;;;;5.45;1.70;;;;;;;;;;6221707;28;20064;-76
2023/08/02 07:38:18;;;;;;;4.15;2.20;;;;;;;;;;6221195;28;20046;-76
2023/08/02 07:41:20;;;;;;;4.22;1.88;;;;;;;;;;6222242;28;20046;-75
2023/08/02 07:44:22;;;;;;;2.47;1.70;;;;;;;;;;6221641;28;20054;-75
2023/08/02 07:47:23;;;;;;;5.03;1.60;;;;;;;;;;6221690;28;20050;-76
2023/08/02 07:50:25;;;;;;;3.75;1.40;;;;;;;;;;6217923;28;20058;-75
2023/08/02 07:53:26;;;;;;;3.55;1.67;;;;;;;;;;6216528;28;20140;-75
2023/08/02 07:56:29;;;;;;;4.13;1.67;;;;;;;;;;6218101;28;20049;-75
2023/08/02 07:59:31;;;;;;;2.97;1.60;;;;;;;;;;6217722;28;20046;-77
2023/08/02 08:02:32;;;;;;;4.10;1.50;;;;;;;;;;6216927;28;20100;-77
2023/08/02 08:05:33;;;;;;;4.20;1.70;;;;;;;;;;6217555;28;20122;-76
2023/08/02 08:08:35;;;;;;;7.32;1.75;;;;;;;;;;6216667;28;20061;-76
2023/08/02 08:11:38;;;;;;;2.72;1.65;;;;;;;;;;6219272;28;20054;-77
2023/08/02 08:14:39;;;;;;;3.55;1.52;;;;;;;;;;6217389;28;20116;-77
2023/08/02 08:17:41;;;;;;;3.97;1.63;;;;;;;;;;6218649;28;20058;-77
2023/08/02 08:20:42;;;;;;;4.75;1.58;;;;;;;;;;6218728;28;20057;-76
2023/08/02 08:23:43;;;;;;;2.75;1.50;;;;;;;;;;6217592;28;20058;-76
2023/08/02 08:26:46;;;;;;;2.75;1.50;;;;;;;;;;6217121;28;20052;-76
2023/08/02 08:29:48;;;;;;;3.45;1.90;;;;;;;;;;6217406;28;20329;-76
2023/08/02 08:32:49;;;;;;;4.20;1.70;;;;;;;;;;6216163;28;20050;-76
2023/08/02 08:35:51;;;;;;;2.80;1.48;;;;;;;;;;6216323;28;20049;-76
2023/08/02 08:38:52;;;;;;;3.90;1.42;;;;;;;;;;6216054;28;20348;-76
2023/08/02 08:41:55;;;;;;;6.82;1.70;;;;;;;;;;6215665;28;20330;-76
2023/08/02 08:44:57;;;;;;;2.80;1.55;;;;;;;;;;6217190;28;20101;-76
2023/08/02 08:47:59;;;;;;;2.72;1.67;;;;;;;;;;6214730;28;20053;-76
2023/08/02 08:51:02;;;;;;;4.22;1.90;;;;;;;;;;6216617;28;20494;-76
2023/08/02 08:57:15;;;;;;;6.85;1.85;;;;;;;;;;6590220;22;20320;-76
2023/08/02 09:00:17;;;;;;;3.28;1.52;;;;;;;;;;6239125;28;20065;-76
2023/08/02 09:03:19;;;;;;;6.53;1.95;;;;;;;;;;6224032;28;20056;-77
2023/08/02 09:06:22;;;;;;;3.47;1.90;;;;;;;;;;6225970;28;20053;-76
2023/08/02 09:09:24;;;;;;;6.05;1.90;;;;;;;;;;6224899;28;20325;-76
2023/08/02 09:12:27;;;;;;;3.60;1.60;;;;;;;;;;6221963;28;20100;-77
2023/08/02 09:15:28;;;;;;;4.65;2.17;;;;;;;;;;6226944;28;20053;-76
2023/08/02 09:18:34;;;;;;;3.28;1.73;;;;;;;;;;6239340;28;20222;-77
2023/08/02 09:21:36;;;;;;;3.38;1.75;;;;;;;;;;6225591;28;20045;-77
2023/08/02 09:24:38;;;;;;;4.10;2.10;;;;;;;;;;6223240;28;20041;-77
2023/08/02 09:27:41;;;;;;;4.75;1.67;;;;;;;;;;6222016;28;20281;-77
2023/08/02 09:30:42;;;;;;;4.75;1.92;;;;;;;;;;6225573;28;20061;-76
2023/08/02 09:33:50;;;;;;;3.83;1.90;;;;;;;;;;6221713;28;20054;-77
2023/08/02 09:36:51;;;;;;;5.22;2.53;;;;;;;;;;6221708;28;20046;-77
2023/08/02 09:39:53;;;;;;;6.28;2.30;;;;;;;;;;6223729;28;20341;-77
2023/08/02 09:42:58;;;;;;;4.50;1.70;;;;;;;;;;6220564;28;20054;-77
2023/08/02 09:46:00;;;;;;;3.28;2.33;;;;;;;;;;6222047;28;20047;-76
2023/08/02 09:49:02;;;;;;;7.18;2.00;;;;;;;;;;6225212;28;20060;-77
2023/08/02 09:52:04;;;;;;;4.43;2.35;;;;;;;;;;6224239;28;20076;-77
2023/08/02 09:55:06;;;;;;;7.28;2.42;;;;;;;;;;6223247;28;20062;-77
2023/08/02 09:58:09;;;;;;;6.28;1.85;;;;;;;;;;6260391;28;20146;-77
2023/08/02 10:01:10;;;;;;;3.97;2.10;;;;;;;;;;6275053;28;20045;-77
2023/08/02 10:04:14;;;;;;;4.10;2.38;;;;;;;;;;6275447;28;20045;-77
2023/08/02 10:07:17;;;;;;;6.25;2.58;;;;;;;;;;6275926;28;20064;-77
2023/08/02 10:10:21;;;;;;;5.20;2.72;;;;;;;;;;6274201;28;20048;-77
2023/08/02 10:13:26;;;;;;;5.38;2.20;;;;;;;;;;6274932;28;20095;-77
2023/08/02 10:16:27;;;;;;;4.75;2.40;;;;;;;;;;6275533;28;20185;-76
2023/08/02 10:19:29;;;;;;;4.97;2.73;;;;;;;;;;6275664;28;20056;-77
2023/08/02 10:22:31;;;;;;;5.63;2.40;;;;;;;;;;6275744;28;20052;-76
2023/08/02 10:25:33;;;;;;;4.33;2.33;;;;;;;;;;6250811;28;20868;-77
2023/08/02 10:28:35;;;;;;;4.32;2.20;;;;;;;;;;6264430;28;20493;-77
2023/08/02 10:31:37;;;;;;;4.47;2.78;;;;;;;;;;6272744;28;20693;-76
2023/08/02 10:34:48;;;;;;;4.60;2.93;;;;;;;;;;6272331;28;20060;-76
2023/08/02 10:37:54;;;;;;;4.13;2.83;;;;;;;;;;6299407;28;20332;-77
2023/08/02 10:41:03;;;;;;;5.00;2.75;;;;;;;;;;6298785;28;20085;-76
2023/08/02 10:44:13;;;;;;;5.07;2.63;;;;;;;;;;6297877;28;20044;-77
2023/08/02 10:47:24;;;;;;;5.28;3.30;;;;;;;;;;6297695;28;20064;-77
2023/08/02 10:50:45;;;;;;;5.70;2.85;;;;;;;;;;6298713;28;20057;-77
2023/08/02 10:54:09;;;;;;;6.90;3.20;;;;;;;;;;6298309;28;21004;-77
2023/08/02 10:57:11;;;;;;;5.18;3.28;;;;;;;;;;6293186;28;20045;-77
2023/08/02 11:00:23;;;;;;;5.43;2.97;;;;;;;;;;6282973;28;20067;-76
2023/08/02 11:03:28;;;;;;;5.18;2.53;;;;;;;;;;6319011;28;20636;-77
2023/08/02 11:06:32;;;;;;;6.25;3.75;;;;;;;;;;6326463;28;20329;-77
2023/08/02 11:09:34;;;;;;;6.75;3.65;;;;;;;;;;6324326;28;20056;-77
2023/08/02 11:12:35;;;;;;;6.72;3.33;;;;;;;;;;6324794;28;20062;-77
2023/08/02 11:15:38;;;;;;;8.90;3.60;;;;;;;;;;6322876;28;20061;-76
2023/08/02 11:18:40;;;;;;;8.20;3.83;;;;;;;;;;6324208;28;20466;-76
2023/08/02 11:21:52;;;;;;;4.78;3.40;;;;;;;;;;6323171;28;20052;-76
2023/08/02 11:24:55;;;;;;;8.18;3.42;;;;;;;;;;6326729;28;20359;-76
2023/08/02 11:28:02;;;;;;;7.30;2.83;;;;;;;;;;6326963;28;20058;-76
2023/08/02 11:31:05;;;;;;;9.38;3.80;;;;;;;;;;6328489;28;20056;-76
2023/08/02 11:34:06;;;;;;;8.38;3.53;;;;;;;;;;6327780;28;20420;-76
2023/08/02 11:37:09;;;;;;;8.60;4.57;;;;;;;;;;6329834;28;20239;-76
2023/08/02 11:40:11;;;;;;;9.45;3.95;;;;;;;;;;6329361;28;20466;-76
2023/08/02 11:43:14;;;;;;;4.70;3.35;;;;;;;;;;6329646;28;20043;-76
2023/08/02 11:46:21;;;;;;;5.20;3.35;;;;;;;;;;6329290;28;20138;-76
2023/08/02 11:49:22;;;;;;;7.40;3.58;;;;;;;;;;6327797;28;20044;-76
2023/08/02 11:52:24;;;;;;;8.65;3.72;;;;;;;;;;6328048;28;20255;-76
2023/08/02 11:55:26;;;;;;;5.45;3.90;;;;;;;;;;6325937;28;20059;-76
2023/08/02 11:58:28;;;;;;;9.45;3.47;;;;;;;;;;6326663;28;20063;-75
2023/08/02 12:01:30;;;;;;;7.00;3.28;;;;;;;;;;6326571;28;20096;-76
2023/08/02 12:04:38;;;;;;;7.93;3.35;;;;;;;;;;6326973;28;20105;-76
2023/08/02 12:07:39;;;;;;;9.23;3.10;;;;;;;;;;6327253;28;20055;-78
2023/08/02 12:10:41;;;;;;;8.17;3.80;;;;;;;;;;6327048;28;20267;-76
2023/08/02 12:13:43;;;;;;;6.00;3.72;;;;;;;;;;6325809;28;20473;-76
2023/08/02 12:16:45;;;;;;;;;;;;;;;;;;6328805;28;20075;-75
2023/08/02 12:19:47;;;;;;;9.75;3.83;;;;;;;;;;6325635;28;19928;-75
2023/08/02 12:22:50;;;;;;;6.70;3.30;;;;;;;;;;6325451;28;20097;-78
2023/08/02 12:25:51;;;;;;;11.02;3.40;;;;;;;;;;6327295;28;20086;-78
2023/08/02 12:28:53;;;;;;;10.00;4.28;;;;;;;;;;6324999;28;20083;-76
2023/08/02 12:31:54;;;;;;;;;;;;;;;;;;6325786;28;20048;-77
2023/08/02 12:35:04;;;;;;;7.53;3.05;;;;;;;;;;6322935;28;19931;-78
2023/08/02 12:38:06;;;;;;;6.97;4.20;;;;;;;;;;6325712;28;20059;-77
2023/08/02 12:41:07;;;;;;;6.45;3.65;;;;;;;;;;6324716;28;20052;-77
2023/08/02 12:44:09;;;;;;;5.63;3.17;;;;;;;;;;6325026;28;20055;-77
2023/08/02 12:47:11;;;;;;;9.32;3.53;;;;;;;;;;6326979;28;20116;-77
2023/08/02 12:50:12;;;;;;;;;;;;;;;;;;6325367;28;20806;-77
2023/08/02 12:53:15;;;;;;;8.93;4.17;;;;;;;;;;6325334;28;19915;-77
2023/08/02 12:56:16;;;;;;;7.53;3.90;;;;;;;;;;6316903;28;20068;-77
2023/08/02 12:59:18;;;;;;;6.50;3.55;;;;;;;;;;6298533;28;20239;-77
2023/08/02 13:02:19;;;;;;;5.57;3.30;;;;;;;;;;6300113;28;20052;-77
2023/08/02 13:05:21;;;;;;;7.28;3.70;;;;;;;;;;6300317;28;20472;-77
2023/08/02 13:08:23;;;;;;;10.85;4.85;;;;;;;;;;6300290;28;20849;-77
2023/08/02 13:11:25;;;;;;;8.85;4.22;;;;;;;;;;6299513;28;20052;-77
2023/08/02 13:14:27;;;;;;;5.93;3.80;;;;;;;;;;6299718;28;20053;-77
2023/08/02 13:17:29;;;;;;;6.95;3.72;;;;;;;;;;6298582;28;20112;-77
2023/08/02 13:20:30;;;;;;;8.48;3.22;;;;;;;;;;6300074;28;20348;-77
2023/08/02 13:23:33;;;;;;;8.00;3.57;;;;;;;;;;6297667;28;20052;-77
2023/08/02 13:26:34;;;;;;;6.10;3.70;;;;;;;;;;6300742;28;20048;-77
2023/08/02 13:29:36;;;;;;;6.15;3.40;;;;;;;;;;6301229;28;20332;-77
2023/08/02 13:32:37;;;;;;;7.97;3.53;;;;;;;;;;6301783;28;20518;-78
2023/08/02 13:35:39;;;;;;;6.13;3.17;;;;;;;;;;6300118;28;20060;-77
2023/08/02 13:38:42;;;;;;;6.70;3.08;;;;;;;;;;6300514;28;20089;-77
2023/08/02 13:41:43;;;;;;;4.75;3.38;;;;;;;;;;6298569;28;20102;-77
2023/08/02 13:44:45;;;;;;;5.03;3.20;;;;;;;;;;6300179;28;20044;-77
2023/08/02 13:47:46;;;;;;;6.38;3.40;;;;;;;;;;6299289;28;20056;-77
2023/08/02 13:50:47;;;;;;;5.68;3.60;;;;;;;;;;6299822;28;20102;-77
2023/08/02 13:53:49;;;;;;;;;;;;;;;;;;6299823;28;20060;-76
2023/08/02 13:56:51;;;;;;;6.90;3.88;;;;;;;;;;6310137;28;20219;-76
2023/08/02 13:59:53;;;;;;;4.45;3.75;;;;;;;;;;6325081;28;20660;-76
2023/08/02 14:02:54;;;;;;;5.80;3.55;;;;;;;;;;6322699;28;20059;-78
2023/08/02 14:05:56;;;;;;;5.32;3.70;;;;;;;;;;6323380;28;20321;-77
2023/08/02 14:08:57;;;;;;;6.93;3.72;;;;;;;;;;6323485;28;20055;-77
2023/08/02 14:12:00;;;;;;;7.05;3.10;;;;;;;;;;6322671;28;20055;-76
2023/08/02 14:15:01;;;;;;;7.95;3.83;;;;;;;;;;6323284;28;20085;-77
2023/08/02 14:18:03;;;;;;;6.80;3.58;;;;;;;;;;6324292;28;20052;-77
2023/08/02 14:21:04;;;;;;;7.88;4.32;;;;;;;;;;6324360;28;20056;-77
2023/08/02 14:24:06;;;;;;;6.22;3.70;;;;;;;;;;6327159;28;20059;-77
2023/08/02 14:27:10;;;;;;;6.00;4.10;;;;;;;;;;6324085;28;20051;-77
2023/08/02 14:30:12;;;;;;;6.50;4.10;;;;;;;;;;6322411;28;20556;-77
2023/08/02 14:33:13;;;;;;;8.07;3.50;;;;;;;;;;6322090;28;20070;-76
2023/08/02 14:36:14;;;;;;;8.30;3.90;;;;;;;;;;6323247;28;20343;-77
2023/08/02 14:39:16;;;;;;;6.68;4.15;;;;;;;;;;6323390;28;20377;-77
2023/08/02 14:42:19;;;;;;;7.50;3.67;;;;;;;;;;6323558;28;20052;-76
2023/08/02 14:45:21;;;;;;;8.45;3.35;;;;;;;;;;6323410;28;20362;-77
2023/08/02 14:48:22;;;;;;;6.97;4.33;;;;;;;;;;6325026;28;20059;-77
2023/08/02 14:51:24;;;;;;;7.07;3.87;;;;;;;;;;6323607;28;20220;-77
2023/08/02 14:54:25;;;;;;;7.93;3.90;;;;;;;;;;6322740;28;20295;-76
2023/08/02 14:57:28;;;;;;;7.50;3.70;;;;;;;;;;6320898;28;20048;-77
2023/08/02 15:00:29;;;;;;;5.50;3.63;;;;;;;;;;6327673;28;20055;-77
2023/08/02 15:03:31;;;;;;;7.50;3.80;;;;;;;;;;6326051;28;20097;-77
2023/08/02 15:06:32;;;;;;;6.43;3.73;;;;;;;;;;6329041;28;20056;-76
2023/08/02 15:09:34;;;;;;;7.15;3.85;;;;;;;;;;6326701;28;20546;-77
2023/08/02 15:12:36;;;;;;;7.78;3.58;;;;;;;;;;6328531;28;20340;-77
2023/08/02 15:15:38;;;;;;;7.53;3.80;;;;;;;;;;6325808;28;20056;-77
2023/08/02 15:18:40;;;;;;;6.35;3.83;;;;;;;;;;6330326;28;20055;-77
2023/08/02 15:21:42;;;;;;;10.65;3.75;;;;;;;;;;6328170;28;20048;-77
2023/08/02 15:24:43;;;;;;;;;;;;;;;;;;6328018;28;20261;-77
2023/08/02 15:27:46;;;;;;;5.55;4.32;;;;;;;;;;6327092;28;19935;-76
2023/08/02 15:30:47;;;;;;;8.63;4.07;;;;;;;;;;6328783;28;20059;-76
2023/08/02 15:33:51;;;;;;;7.05;3.50;;;;;;;;;;6326986;28;20059;-77
2023/08/02 15:36:52;;;;;;;9.63;4.50;;;;;;;;;;6327714;28;20054;-77
2023/08/02 15:39:54;;;;;;;10.60;3.80;;;;;;;;;;6327954;28;20056;-77
2023/08/02 15:42:56;;;;;;;6.50;3.97;;;;;;;;;;6325184;28;20469;-77
2023/08/02 15:45:58;;;;;;;10.98;4.00;;;;;;;;;;6327048;28;20063;-77
2023/08/02 15:48:59;;;;;;;8.70;4.43;;;;;;;;;;6326985;28;20050;-76
2023/08/02 15:52:01;;;;;;;6.85;4.00;;;;;;;;;;6326362;28;20040;-76
2023/08/02 15:55:02;;;;;;;9.52;4.43;;;;;;;;;;6326595;28;20058;-76
2023/08/02 15:58:05;;;;;;;7.88;4.07;;;;;;;;;;6325438;28;20048;-76
2023/08/02 16:01:07;;;;;;;8.70;4.05;;;;;;;;;;6325894;28;20063;-76
2023/08/02 16:04:08;;;;;;;5.95;3.75;;;;;;;;;;6326037;28;20048;-76
2023/08/02 16:07:09;;;;;;;8.05;4.53;;;;;;;;;;6326004;28;20295;-76
2023/08/02 16:10:11;;;;;;;16.00;4.53;;;;;;;;;;6326894;28;20063;-76
2023/08/02 16:13:14;;;;;;;7.75;4.00;;;;;;;;;;6326107;28;20052;-76
2023/08/02 16:16:15;;;;;;;9.43;5.18;;;;;;;;;;6327539;28;20097;-76
2023/08/02 16:19:17;;;;;;;6.20;3.78;;;;;;;;;;6327440;28;20052;-76
2023/08/02 16:22:18;;;;;;;9.40;4.70;;;;;;;;;;6325199;28;20044;-75
2023/08/02 16:25:21;;;;;;;7.18;4.10;;;;;;;;;;6326173;28;20054;-75
2023/08/02 16:28:25;;;;;;;7.47;4.63;;;;;;;;;;6326603;28;20101;-77
2023/08/02 16:31:27;;;;;;;7.50;4.15;;;;;;;;;;6327637;28;20097;-77
2023/08/02 16:34:28;;;;;;;6.65;3.92;;;;;;;;;;6326181;28;20052;-77
2023/08/02 16:37:30;;;;;;;8.48;4.50;;;;;;;;;;6324989;28;20063;-77
2023/08/02 16:40:31;;;;;;;8.80;4.65;;;;;;;;;;6325370;28;20055;-77
2023/08/02 16:43:34;;;;;;;7.95;4.47;;;;;;;;;;6326387;28;20051;-77
2023/08/02 16:46:35;;;;;;;6.95;4.03;;;;;;;;;;6327147;28;20054;-77
2023/08/02 16:49:37;;;;;;;9.00;4.65;;;;;;;;;;6323827;28;20043;-77
2023/08/02 16:52:38;;;;;;;9.90;4.00;;;;;;;;;;6326511;28;20254;-77
2023/08/02 16:55:40;;;;;;;9.90;4.70;;;;;;;;;;6324551;28;20146;-77
2023/08/02 16:58:43;;;;;;;12.07;4.30;;;;;;;;;;6325806;28;20052;-77
2023/08/02 17:01:44;;;;;;;7.63;4.38;;;;;;;;;;6324340;28;20046;-77
2023/08/02 17:04:46;;;;;;;10.10;4.25;;;;;;;;;;6324854;28;20318;-77
2023/08/02 17:07:47;;;;;;;11.98;4.85;;;;;;;;;;6326912;28;20394;-77
2023/08/02 17:10:49;;;;;;;10.10;5.05;;;;;;;;;;6325021;28;20054;-77
2023/08/02 17:13:51;;;;;;;8.95;4.72;;;;;;;;;;6326120;28;20344;-77
2023/08/02 17:16:53;;;;;;;;;;;;;;;;;;6326578;28;20385;-77
2023/08/02 17:19:54;;;;;;;8.30;4.40;;;;;;;;;;6325537;28;19925;-77
2023/08/02 17:22:56;;;;;;;6.93;4.20;;;;;;;;;;6322907;28;20050;-77
2023/08/02 17:25:57;;;;;;;8.20;4.68;;;;;;;;;;6324530;28;20066;-77
2023/08/02 17:29:00;;;;;;;8.55;4.10;;;;;;;;;;6325670;28;20073;-77
2023/08/02 17:32:02;;;;;;;;;;;;;;;;;;6324567;28;20052;-77
2023/08/02 17:35:03;;;;;;;7.38;4.35;;;;;;;;;;6324764;28;19946;-76
2023/08/02 17:38:05;;;;;;;11.38;5.47;;;;;;;;;;6325895;28;20350;-76
2023/08/02 17:41:06;;;;;;;8.35;4.97;;;;;;;;;;6323815;28;20044;-77
2023/08/02 17:44:09;;;;;;;9.32;5.05;;;;;;;;;;6325464;28;20056;-76
2023/08/02 17:47:10;;;;;;;;;;;;;;;;;;6324219;28;20047;-77
2023/08/02 17:50:12;;;;;;;11.45;4.72;;;;;;;;;;6322240;28;19916;-76
2023/08/02 17:53:13;;;;;;;9.60;4.65;;;;;;;;;;6324311;28;20040;-77
2023/08/02 17:56:15;;;;;;;11.90;5.10;;;;;;;;;;6321818;28;20060;-77
2023/08/02 17:59:20;;;;;;;11.65;4.25;;;;;;;;;;6323331;28;20052;-76
2023/08/02 18:02:21;;;;;;;9.60;4.88;;;;;;;;;;6324032;28;20286;-77
2023/08/02 18:05:23;;;;;;;10.30;5.10;;;;;;;;;;6321718;28;20048;-77
2023/08/02 18:08:24;;;;;;;8.82;5.10;;;;;;;;;;6323858;28;20052;-74
2023/08/02 18:11:25;;;;;;;11.23;5.53;;;;;;;;;;6324119;28;20320;-76